Air Navigation Services of Czech Republic
Airport: LKPD Updated:  21.01.2019 05:01:06  UTC
 METAR LKPD 21.01. 05:00 ...
METAR LKPD 210500Z 00000KT 8000 NSC M10/M12 Q1021 NOSIG RMK BLU=
 TAF LKPD 20.01. 17:00 AAA
TAF AMD LKPD 201900Z 2018/2118 CNL=